Time;durP1;ratioP1;P1;durP2;ratioP2;P2;SDS_P1;SDS_P2;PMS_P1;PMS_P2;Temp;Humidity;BMP_temperature;BMP_pressure;BME280_temperature;BME280_humidity;BME280_pressure;Samples;Min_cycle;Max_cycle;Signal;HPM_P1;HPM_P2
2022/04/03 00:00:53;;;;;;;3.30;1.20;;;-0.10;99.90;;;;;;5066746;28;20454;-83
2022/04/03 00:03:19;;;;;;;1.67;0.80;;;-0.10;99.90;;;;;;5054323;28;20025;-83
2022/04/03 00:05:44;;;;;;;3.17;1.15;;;-0.10;99.90;;;;;;5063785;28;20048;-84
2022/04/03 00:08:14;;;;;;;2.15;1.10;;;-0.20;99.90;;;;;;5041288;28;20029;-84
2022/04/03 00:10:40;;;;;;;2.47;1.10;;;-0.20;99.90;;;;;;5049409;28;20037;-82
2022/04/03 00:13:07;;;;;;;4.22;1.40;;;-0.20;99.90;;;;;;5052526;28;20700;-83
2022/04/03 00:15:36;;;;;;;3.25;1.45;;;-0.20;99.90;;;;;;5070827;28;20139;-84
2022/04/03 00:18:01;;;;;;;2.13;1.10;;;-0.20;99.90;;;;;;5060841;28;20806;-84
2022/04/03 00:20:27;;;;;;;2.70;1.30;;;-0.30;99.90;;;;;;5058211;28;20036;-83
2022/04/03 00:22:52;;;;;;;5.00;1.38;;;-0.30;99.90;;;;;;5067061;28;20043;-84
2022/04/03 00:25:19;;;;;;;4.00;1.90;;;-0.30;99.90;;;;;;5053956;28;20064;-84
2022/04/03 00:27:45;;;;;;;3.50;1.23;;;-0.30;99.90;;;;;;5063951;28;20114;-85
2022/04/03 00:30:11;;;;;;;3.00;1.05;;;-0.30;99.90;;;;;;5062061;28;20039;-83
2022/04/03 00:32:37;;;;;;;2.22;1.00;;;-0.40;99.90;;;;;;5056145;28;20036;-84
2022/04/03 00:35:04;;;;;;;2.47;1.10;;;-0.40;99.90;;;;;;5068377;28;20068;-84
2022/04/03 00:37:31;;;;;;;2.50;1.08;;;-0.40;99.90;;;;;;5059466;28;20131;-84
2022/04/03 00:39:56;;;;;;;2.35;1.13;;;-0.40;99.90;;;;;;5059060;28;20032;-84
2022/04/03 00:42:22;;;;;;;2.72;1.05;;;-0.40;99.90;;;;;;5058724;28;20037;-82
2022/04/03 00:44:48;;;;;;;2.60;1.05;;;-0.40;99.90;;;;;;5070037;28;20087;-83
2022/04/03 00:47:16;;;;;;;2.70;1.00;;;-0.40;99.90;;;;;;5053840;28;20081;-83
2022/04/03 00:49:42;;;;;;;2.22;1.02;;;-0.50;99.90;;;;;;5066336;28;20036;-84
2022/04/03 00:52:08;;;;;;;2.50;0.98;;;-0.50;99.90;;;;;;5056038;28;20024;-83
2022/04/03 00:54:34;;;;;;;2.50;1.00;;;-0.60;99.90;;;;;;5072005;28;20224;-83
2022/04/03 00:57:02;;;;;;;3.40;0.95;;;-0.60;99.90;;;;;;5084171;28;20044;-83
2022/04/03 00:59:28;;;;;;;2.92;1.05;;;-0.60;99.90;;;;;;5078648;28;20521;-84
2022/04/03 01:01:54;;;;;;;2.75;1.33;;;-0.60;99.90;;;;;;5082575;28;20117;-85
2022/04/03 01:04:19;;;;;;;2.22;0.95;;;-0.70;99.90;;;;;;5071327;28;20452;-84
2022/04/03 01:06:45;;;;;;;2.20;1.10;;;-0.70;99.90;;;;;;5069112;28;20040;-84
2022/04/03 01:09:11;;;;;;;2.67;0.85;;;-0.70;99.90;;;;;;5078422;28;20078;-84
2022/04/03 01:11:38;;;;;;;1.70;0.93;;;-0.70;99.90;;;;;;5075935;28;20028;-84
2022/04/03 01:14:05;;;;;;;1.50;0.90;;;-0.70;99.90;;;;;;5082853;28;20029;-84
2022/04/03 01:16:32;;;;;;;1.63;0.90;;;-0.80;99.90;;;;;;5091825;28;20045;-84
2022/04/03 01:18:58;;;;;;;4.57;1.00;;;-0.80;99.90;;;;;;5092276;28;20040;-83
2022/04/03 01:21:24;;;;;;;1.77;0.93;;;-0.80;99.90;;;;;;5086882;28;20124;-85
2022/04/03 01:23:50;;;;;;;2.20;1.30;;;-0.80;99.90;;;;;;5080141;28;20071;-84
2022/04/03 01:26:16;;;;;;;2.90;1.30;;;-0.80;99.90;;;;;;5068464;28;20123;-84
2022/04/03 01:28:43;;;;;;;3.03;1.30;;;-0.90;99.90;;;;;;5058290;28;20064;-84
2022/04/03 01:31:09;;;;;;;1.55;0.90;;;-0.90;99.90;;;;;;5056719;28;20188;-83
2022/04/03 01:33:35;;;;;;;2.22;1.10;;;-0.90;99.90;;;;;;5039033;28;20119;-85
2022/04/03 01:36:01;;;;;;;3.92;1.50;;;-0.90;99.90;;;;;;5056025;28;20145;-84
2022/04/03 01:38:26;;;;;;;3.90;1.52;;;-0.90;99.90;;;;;;5037976;28;20056;-84
2022/04/03 01:40:52;;;;;;;3.50;1.50;;;-0.90;99.90;;;;;;5036388;28;20033;-84
2022/04/03 01:43:17;;;;;;;3.15;1.67;;;-0.90;99.90;;;;;;5037901;28;20037;-83
2022/04/03 01:45:43;;;;;;;3.80;1.60;;;-0.90;99.90;;;;;;5054865;28;20384;-84
2022/04/03 01:48:10;;;;;;;3.33;1.77;;;-0.90;99.90;;;;;;5037722;28;20037;-84
2022/04/03 01:50:38;;;;;;;2.17;1.48;;;-0.90;99.90;;;;;;5055247;28;20387;-85
2022/04/03 01:53:05;;;;;;;2.95;1.80;;;-0.90;99.90;;;;;;5036734;28;20087;-83
2022/04/03 01:55:31;;;;;;;4.20;1.88;;;-0.90;99.90;;;;;;5036692;28;20029;-83
2022/04/03 01:57:57;;;;;;;3.63;1.90;;;-1.00;99.90;;;;;;5036748;28;20037;-83
2022/04/03 02:00:23;;;;;;;3.60;1.80;;;-1.00;99.90;;;;;;5036564;28;20120;-84
2022/04/03 02:02:50;;;;;;;3.10;1.52;;;-1.00;99.90;;;;;;5054644;28;20490;-85
2022/04/03 02:05:16;;;;;;;3.03;1.75;;;-0.90;99.90;;;;;;5036420;28;20041;-85
2022/04/03 02:07:42;;;;;;;3.25;1.60;;;-1.00;99.90;;;;;;5036575;28;20069;-84
2022/04/03 02:10:09;;;;;;;3.88;1.95;;;-1.00;99.90;;;;;;5054184;28;20126;-84
2022/04/03 02:12:42;;;;;;;2.95;1.85;;;-1.00;99.90;;;;;;5054024;28;20498;-84
2022/04/03 02:15:11;;;;;;;3.53;1.90;;;-1.00;99.90;;;;;;5035669;28;20032;-84
2022/04/03 02:17:37;;;;;;;4.28;1.80;;;-0.90;99.90;;;;;;5035796;28;20048;-83
2022/04/03 02:20:04;;;;;;;3.80;1.88;;;-1.00;99.90;;;;;;5035868;28;20032;-84
2022/04/03 02:22:29;;;;;;;4.22;2.08;;;-1.00;99.90;;;;;;5035583;28;20055;-84
2022/04/03 02:24:55;;;;;;;3.38;1.92;;;-1.00;99.90;;;;;;5036214;28;20567;-83
2022/04/03 02:27:21;;;;;;;5.15;2.25;;;-1.00;99.90;;;;;;5053410;28;20494;-84
2022/04/03 02:29:46;;;;;;;3.13;1.88;;;-1.00;99.90;;;;;;5035117;28;20098;-85
2022/04/03 02:32:12;;;;;;;4.00;1.52;;;-1.10;99.90;;;;;;5035411;28;20042;-84
2022/04/03 02:34:38;;;;;;;2.33;1.40;;;-1.10;99.90;;;;;;5035299;28;20033;-84
2022/04/03 02:37:03;;;;;;;3.22;1.50;;;-1.10;99.90;;;;;;5035145;28;20402;-84
2022/04/03 02:39:29;;;;;;;4.57;1.73;;;-1.10;99.90;;;;;;5035188;28;20395;-84
2022/04/03 02:41:55;;;;;;;3.63;2.05;;;-1.10;99.90;;;;;;5035250;28;20394;-84
2022/04/03 02:44:20;;;;;;;4.55;1.90;;;-1.10;99.90;;;;;;5035001;28;20029;-84
2022/04/03 02:46:46;;;;;;;3.13;1.70;;;-1.20;99.90;;;;;;5034933;28;20037;-84
2022/04/03 02:49:11;;;;;;;3.80;2.25;;;-1.20;99.90;;;;;;5053220;28;20029;-84
2022/04/03 02:51:37;;;;;;;6.05;2.50;;;-1.20;99.90;;;;;;5035345;28;20072;-84
2022/04/03 02:54:03;;;;;;;5.18;2.00;;;-1.10;99.90;;;;;;5034912;28;20084;-83
2022/04/03 02:56:29;;;;;;;3.63;2.20;;;-1.20;99.90;;;;;;5035293;28;20037;-84
2022/04/03 02:58:55;;;;;;;3.03;1.50;;;-1.10;99.90;;;;;;5035601;28;20033;-84
2022/04/03 03:01:21;;;;;;;4.60;2.83;;;-1.10;99.90;;;;;;5035604;28;20487;-84
2022/04/03 03:03:47;;;;;;;3.00;1.40;;;-1.10;99.90;;;;;;5036163;28;20055;-84
2022/04/03 03:06:14;;;;;;;3.40;1.75;;;-1.10;99.90;;;;;;5035529;28;20044;-84
2022/04/03 03:08:43;;;;;;;3.05;1.55;;;-1.00;99.90;;;;;;5035524;28;20053;-84
2022/04/03 03:11:10;;;;;;;3.72;1.83;;;-1.00;99.90;;;;;;5035127;28;20095;-84
2022/04/03 03:13:36;;;;;;;4.20;2.03;;;-0.90;99.90;;;;;;5035211;28;20465;-84
2022/04/03 03:16:02;;;;;;;4.55;2.10;;;-1.00;99.90;;;;;;5052717;28;20036;-84
2022/04/03 03:18:28;;;;;;;3.28;1.48;;;-1.00;99.90;;;;;;5034991;28;20033;-83
2022/04/03 03:20:54;;;;;;;4.35;1.60;;;-1.00;99.90;;;;;;5035047;28;20029;-84
2022/04/03 03:23:19;;;;;;;3.33;1.58;;;-1.00;99.90;;;;;;5053183;28;20074;-84
2022/04/03 03:25:45;;;;;;;3.22;1.27;;;-1.00;99.90;;;;;;5052456;28;20375;-84
2022/04/03 03:28:12;;;;;;;2.45;1.30;;;-0.90;99.90;;;;;;5035093;28;20025;-84
2022/04/03 03:30:38;;;;;;;4.10;2.10;;;-0.80;99.90;;;;;;5038825;28;20033;-84
2022/04/03 03:33:05;;;;;;;3.78;1.92;;;-0.80;99.90;;;;;;5036172;28;20029;-84
2022/04/03 03:35:30;;;;;;;3.63;2.38;;;-0.70;99.90;;;;;;5053921;28;20033;-83
2022/04/03 03:37:56;;;;;;;2.20;1.50;;;-0.60;99.90;;;;;;5037609;28;20037;-85
2022/04/03 03:40:23;;;;;;;5.68;2.55;;;-0.60;99.90;;;;;;5037801;28;20089;-84
2022/04/03 03:42:48;;;;;;;3.08;1.67;;;-0.50;99.90;;;;;;5021232;28;20048;-84
2022/04/03 03:45:16;;;;;;;3.08;1.70;;;-0.50;99.90;;;;;;5041203;28;20037;-83
2022/04/03 03:47:46;;;;;;;3.10;1.70;;;-0.50;99.90;;;;;;5037909;28;20021;-83
2022/04/03 03:50:13;;;;;;;3.25;1.60;;;-0.60;99.90;;;;;;5056432;28;20044;-83
2022/04/03 03:52:39;;;;;;;5.45;2.85;;;-0.60;99.90;;;;;;5056212;28;20033;-84
2022/04/03 03:55:05;;;;;;;2.60;1.42;;;-0.50;99.90;;;;;;5038363;28;20041;-84
2022/04/03 03:57:31;;;;;;;3.58;1.70;;;-0.50;99.90;;;;;;5038010;28;20033;-83
2022/04/03 03:59:57;;;;;;;2.92;1.60;;;-0.50;99.90;;;;;;5055660;28;20491;-84
2022/04/03 04:02:22;;;;;;;3.92;1.63;;;-0.40;99.90;;;;;;5039867;28;20127;-84
2022/04/03 04:04:48;;;;;;;2.85;1.60;;;-0.40;99.90;;;;;;5044695;28;20045;-84
2022/04/03 04:07:14;;;;;;;2.55;1.48;;;-0.40;99.90;;;;;;5061659;28;20033;-84
2022/04/03 04:09:39;;;;;;;2.53;1.40;;;-0.40;99.90;;;;;;5059336;28;20036;-83
2022/04/03 04:12:06;;;;;;;2.67;1.38;;;-0.30;99.90;;;;;;5040363;28;20064;-84
2022/04/03 04:14:32;;;;;;;3.97;1.63;;;-0.30;99.90;;;;;;5040411;28;20039;-84
2022/04/03 04:16:58;;;;;;;4.20;2.05;;;-0.30;99.90;;;;;;5058107;28;20462;-84
2022/04/03 04:19:24;;;;;;;3.50;1.75;;;-0.20;99.90;;;;;;5041580;28;20091;-84
2022/04/03 04:21:51;;;;;;;4.13;1.75;;;-0.20;99.90;;;;;;5039978;28;20483;-84
2022/04/03 04:24:16;;;;;;;3.58;1.70;;;-0.20;99.90;;;;;;5038468;28;20049;-84
2022/04/03 04:26:42;;;;;;;5.03;2.00;;;-0.20;99.90;;;;;;5041803;28;20041;-84
2022/04/03 04:29:07;;;;;;;2.88;1.70;;;-0.20;99.90;;;;;;5058937;28;20033;-84
2022/04/03 04:31:33;;;;;;;2.72;1.60;;;-0.20;99.90;;;;;;5038710;28;20108;-84
2022/04/03 04:33:59;;;;;;;2.90;1.60;;;-0.20;99.90;;;;;;5038408;28;20032;-83
2022/04/03 04:36:28;;;;;;;3.33;1.70;;;-0.20;99.90;;;;;;5037447;28;20032;-83
2022/04/03 04:38:54;;;;;;;2.65;1.50;;;-0.10;99.90;;;;;;5037548;28;20025;-84
2022/04/03 04:41:20;;;;;;;3.13;1.52;;;-0.10;99.90;;;;;;5037994;28;20029;-84
2022/04/03 04:43:45;;;;;;;2.90;1.73;;;-0.10;99.90;;;;;;5038084;28;20474;-84
2022/04/03 04:46:11;;;;;;;2.95;1.65;;;0.00;99.90;;;;;;5037573;28;20045;-84
2022/04/03 04:48:36;;;;;;;3.28;1.60;;;0.00;99.90;;;;;;5037299;28;20494;-84
2022/04/03 04:51:02;;;;;;;3.50;1.73;;;0.10;99.90;;;;;;5037111;28;20486;-84
2022/04/03 04:53:28;;;;;;;2.72;1.17;;;0.10;99.90;;;;;;5037006;28;20457;-84
2022/04/03 04:55:54;;;;;;;3.38;1.40;;;0.10;99.90;;;;;;5037466;28;20040;-83
2022/04/03 04:58:20;;;;;;;2.60;1.40;;;0.20;99.90;;;;;;5055188;28;20029;-84
2022/04/03 05:00:45;;;;;;;2.97;1.30;;;0.20;99.90;;;;;;5054927;28;20025;-83
2022/04/03 05:03:12;;;;;;;3.20;1.70;;;0.20;99.90;;;;;;5036978;28;20025;-84
2022/04/03 05:05:37;;;;;;;3.00;1.30;;;0.30;99.90;;;;;;5036856;28;20098;-83
2022/04/03 05:08:04;;;;;;;2.70;1.38;;;0.30;99.90;;;;;;5037163;28;20505;-84
2022/04/03 05:10:31;;;;;;;2.40;1.20;;;0.30;99.90;;;;;;5036956;28;20098;-85
2022/04/03 05:12:57;;;;;;;2.22;1.20;;;0.40;99.90;;;;;;5037055;28;20029;-84
2022/04/03 05:15:24;;;;;;;2.30;1.35;;;0.40;99.90;;;;;;5036111;28;20033;-84
2022/04/03 05:17:50;;;;;;;3.13;1.50;;;0.50;99.90;;;;;;5054765;28;20114;-83
2022/04/03 05:20:16;;;;;;;2.15;1.40;;;0.50;99.90;;;;;;5054484;28;20423;-84
2022/04/03 05:22:43;;;;;;;1.92;1.23;;;0.50;99.90;;;;;;5054444;28;20422;-83
2022/04/03 05:25:11;;;;;;;3.20;1.38;;;0.60;99.90;;;;;;5054174;28;20055;-84
2022/04/03 05:27:36;;;;;;;1.98;1.23;;;0.60;99.90;;;;;;5037590;28;20120;-84
2022/04/03 05:30:03;;;;;;;2.97;1.33;;;0.70;99.90;;;;;;5036564;28;20041;-84
2022/04/03 05:32:31;;;;;;;2.30;1.33;;;0.70;99.90;;;;;;5036546;28;20439;-84
2022/04/03 05:34:58;;;;;;;2.38;1.35;;;0.70;99.90;;;;;;5036841;28;20635;-84
2022/04/03 05:37:23;;;;;;;2.50;1.50;;;0.80;99.90;;;;;;5036061;28;20132;-84
2022/04/03 05:39:51;;;;;;;2.35;1.23;;;0.80;99.90;;;;;;5036045;28;20052;-84
2022/04/03 05:42:17;;;;;;;2.80;1.45;;;0.80;99.90;;;;;;5035738;28;20495;-84
2022/04/03 05:44:43;;;;;;;3.45;1.60;;;0.90;99.90;;;;;;5036429;28;20029;-85
2022/04/03 05:47:08;;;;;;;2.70;1.40;;;0.90;99.90;;;;;;5054213;28;20052;-83
2022/04/03 05:49:34;;;;;;;2.00;1.30;;;0.90;99.90;;;;;;5035970;28;20029;-84
2022/04/03 05:51:59;;;;;;;2.53;1.40;;;1.00;99.90;;;;;;5036773;28;20033;-83
2022/04/03 05:54:25;;;;;;;4.07;1.23;;;1.00;99.90;;;;;;5040234;28;20514;-84
2022/04/03 05:56:51;;;;;;;4.32;1.30;;;1.00;99.90;;;;;;5058507;28;20021;-83
2022/04/03 05:59:19;;;;;;;3.45;1.17;;;1.10;99.90;;;;;;5053792;28;20043;-84
2022/04/03 06:01:49;;;;;;;2.00;1.13;;;1.10;99.90;;;;;;5053481;28;20104;-84
2022/04/03 06:04:14;;;;;;;3.08;1.40;;;1.10;99.90;;;;;;5053474;28;20037;-83
2022/04/03 06:06:41;;;;;;;3.13;1.75;;;1.10;99.90;;;;;;5035609;28;20111;-84
2022/04/03 06:09:07;;;;;;;4.38;2.03;;;1.20;99.90;;;;;;5053108;28;20044;-84
2022/04/03 06:11:32;;;;;;;4.20;1.80;;;1.20;99.90;;;;;;5053425;28;20055;-83
2022/04/03 06:13:58;;;;;;;4.13;1.50;;;1.20;99.90;;;;;;5035309;28;20550;-84
2022/04/03 06:16:24;;;;;;;3.88;1.75;;;1.20;99.90;;;;;;5035483;28;20060;-84
2022/04/03 06:18:52;;;;;;;2.78;1.63;;;1.20;99.90;;;;;;5035230;28;20063;-84
2022/04/03 06:21:18;;;;;;;2.70;1.50;;;1.30;99.90;;;;;;5035208;28;20612;-84
2022/04/03 06:23:44;;;;;;;3.70;1.90;;;1.20;99.90;;;;;;5053100;28;20067;-83
2022/04/03 06:26:09;;;;;;;2.92;1.60;;;1.20;99.90;;;;;;5049877;28;20056;-84
2022/04/03 06:28:38;;;;;;;3.80;1.70;;;1.20;99.90;;;;;;5032251;28;20029;-84
2022/04/03 06:31:04;;;;;;;3.40;1.70;;;1.30;99.90;;;;;;5049615;28;20033;-84
2022/04/03 06:33:31;;;;;;;3.78;2.00;;;1.20;99.90;;;;;;5032084;28;20025;-85
2022/04/03 06:35:57;;;;;;;3.83;1.90;;;1.20;99.90;;;;;;5050452;28;20040;-85
2022/04/03 06:38:23;;;;;;;3.83;2.10;;;1.20;99.90;;;;;;5032501;28;20477;-85
2022/04/03 06:40:54;;;;;;;4.05;2.42;;;1.20;99.90;;;;;;5032905;28;20448;-85
2022/04/03 06:43:25;;;;;;;5.15;2.13;;;1.10;99.90;;;;;;5050197;28;20601;-85
2022/04/03 06:45:51;;;;;;;5.75;2.08;;;1.00;99.90;;;;;;5031789;28;20116;-85
2022/04/03 06:48:18;;;;;;;5.65;2.80;;;1.00;99.90;;;;;;5032913;28;20041;-85
2022/04/03 06:50:43;;;;;;;5.85;2.97;;;1.10;99.90;;;;;;5056220;28;20032;-84
2022/04/03 06:53:09;;;;;;;4.40;3.15;;;1.10;99.90;;;;;;5032489;28;20064;-84
2022/04/03 06:55:35;;;;;;;4.72;2.70;;;1.10;99.90;;;;;;5031860;28;20048;-84
2022/04/03 06:58:01;;;;;;;5.03;2.65;;;1.10;99.90;;;;;;5032515;28;20029;-86
2022/04/03 07:00:28;;;;;;;5.32;2.55;;;1.10;99.90;;;;;;5034278;28;20041;-83
2022/04/03 07:02:54;;;;;;;6.22;3.40;;;1.20;99.90;;;;;;5032292;28;20033;-84
2022/04/03 07:05:19;;;;;;;5.75;3.22;;;1.20;99.90;;;;;;5031751;28;20051;-85
2022/04/03 07:07:45;;;;;;;7.28;3.47;;;1.30;99.90;;;;;;5032017;28;20477;-84
2022/04/03 07:10:11;;;;;;;4.78;2.88;;;1.30;99.90;;;;;;5050635;28;20045;-86
2022/04/03 07:12:38;;;;;;;7.38;3.78;;;1.40;99.90;;;;;;5032104;28;20114;-85
2022/04/03 07:15:04;;;;;;;7.25;3.20;;;1.40;99.90;;;;;;5049787;28;20033;-86
2022/04/03 07:17:30;;;;;;;4.47;2.80;;;1.50;99.90;;;;;;5031547;28;20056;-85
2022/04/03 07:19:56;;;;;;;6.45;3.42;;;1.60;99.90;;;;;;5031825;28;20557;-84
2022/04/03 07:22:22;;;;;;;7.32;3.70;;;1.70;99.90;;;;;;5031238;28;20679;-83
2022/04/03 07:24:48;;;;;;;9.05;4.15;;;1.80;99.90;;;;;;5031334;28;20041;-85
2022/04/03 07:27:13;;;;;;;7.50;3.65;;;1.90;99.90;;;;;;5031628;28;20368;-84
2022/04/03 07:29:39;;;;;;;6.63;3.80;;;2.00;99.90;;;;;;5031302;28;20036;-85
2022/04/03 07:32:05;;;;;;;7.28;4.13;;;2.10;99.90;;;;;;5050126;28;20640;-85
2022/04/03 07:34:31;;;;;;;6.53;4.00;;;2.20;99.90;;;;;;5031883;28;20029;-85
2022/04/03 07:36:57;;;;;;;5.85;3.90;;;2.30;99.90;;;;;;5032164;28;20037;-85
2022/04/03 07:39:23;;;;;;;5.97;3.63;;;2.40;99.90;;;;;;5035141;28;20477;-85
2022/04/03 07:41:50;;;;;;;5.47;3.50;;;2.50;99.90;;;;;;5043082;28;20123;-85
2022/04/03 07:44:16;;;;;;;6.65;3.97;;;2.60;99.90;;;;;;5039533;28;20498;-85
2022/04/03 07:46:42;;;;;;;6.80;3.80;;;2.70;99.90;;;;;;5053264;28;20059;-84
2022/04/03 07:49:07;;;;;;;8.70;3.67;;;2.80;99.90;;;;;;5035827;28;20029;-85
2022/04/03 07:51:34;;;;;;;7.40;3.60;;;2.90;99.90;;;;;;5036225;28;20025;-86
2022/04/03 07:53:59;;;;;;;7.15;3.33;;;3.00;99.90;;;;;;5020320;28;20190;-85
2022/04/03 07:56:28;;;;;;;4.63;2.70;;;3.10;99.90;;;;;;5038307;28;20547;-85
2022/04/03 07:58:54;;;;;;;8.48;3.58;;;3.20;99.90;;;;;;5037803;28;20540;-87
2022/04/03 08:01:19;;;;;;;9.52;3.95;;;3.20;99.90;;;;;;5059798;28;20111;-86
2022/04/03 08:03:45;;;;;;;7.07;3.30;;;3.40;99.90;;;;;;5044215;28;20033;-87
2022/04/03 08:06:11;;;;;;;5.30;3.42;;;3.50;99.90;;;;;;5062781;28;20029;-88
2022/04/03 08:08:37;;;;;;;6.85;3.03;;;3.60;99.90;;;;;;5058183;28;20067;-86
2022/04/03 08:11:02;;;;;;;4.88;3.20;;;3.80;99.90;;;;;;5058940;28;20013;-86
2022/04/03 08:13:28;;;;;;;7.80;3.88;;;3.90;99.90;;;;;;5071858;28;20041;-85
2022/04/03 08:15:54;;;;;;;4.50;3.08;;;4.10;99.90;;;;;;5080709;28;20055;-86
2022/04/03 08:18:22;;;;;;;5.93;3.60;;;4.10;99.90;;;;;;5081818;28;20059;-84
2022/04/03 08:20:47;;;;;;;7.65;4.45;;;4.30;99.90;;;;;;5082491;28;20013;-84
2022/04/03 08:23:13;;;;;;;6.00;3.78;;;4.60;99.90;;;;;;5081405;28;20044;-86
2022/04/03 08:25:39;;;;;;;5.50;3.40;;;5.00;99.90;;;;;;5080202;28;20042;-88
2022/04/03 08:28:07;;;;;;;5.78;3.75;;;5.40;99.90;;;;;;5074001;28;20037;-87
2022/04/03 08:30:37;;;;;;;4.63;3.20;;;5.70;99.90;;;;;;5074961;28;20032;-86
2022/04/03 08:33:05;;;;;;;6.78;3.10;;;5.90;99.90;;;;;;5095500;28;20056;-88
2022/04/03 08:35:33;;;;;;;5.50;3.05;;;6.00;99.90;;;;;;5090502;28;20032;-87
2022/04/03 08:38:00;;;;;;;4.63;2.90;;;6.00;99.90;;;;;;5093143;28;20028;-88
2022/04/03 08:40:26;;;;;;;6.32;3.10;;;6.00;99.90;;;;;;5078473;28;20048;-88
2022/04/03 08:42:55;;;;;;;7.60;2.95;;;6.00;99.90;;;;;;5066599;28;20027;-89
2022/04/03 08:45:22;;;;;;;5.50;3.13;;;5.90;99.90;;;;;;5061186;28;20044;-88
2022/04/03 08:47:58;;;;;;;2.95;2.25;;;6.00;99.90;;;;;;5059240;28;20088;-90
2022/04/03 08:50:33;;;;;;;3.75;2.50;;;6.00;99.90;;;;;;5061127;28;20029;-88
2022/04/03 08:53:02;;;;;;;4.18;2.20;;;6.20;99.90;;;;;;5062732;28;20037;-90
2022/04/03 08:55:29;;;;;;;4.30;2.42;;;6.30;99.90;;;;;;5079577;28;20040;-88
2022/04/03 08:57:56;;;;;;;6.22;2.50;;;6.40;99.90;;;;;;5061176;28;20041;-88
2022/04/03 09:00:21;;;;;;;6.25;2.63;;;6.50;99.90;;;;;;5061245;28;20039;-89
2022/04/03 09:02:51;;;;;;;5.20;2.10;;;6.60;99.90;;;;;;5060632;28;20490;-90
2022/04/03 09:05:17;;;;;;;3.63;2.20;;;6.50;99.90;;;;;;5061277;28;20494;-88
2022/04/03 09:07:59;;;;;;;3.03;1.88;;;6.40;99.90;;;;;;5079649;28;20033;-90
2022/04/03 09:10:25;;;;;;;4.40;2.30;;;6.30;99.90;;;;;;5062683;28;20061;-90
2022/04/03 09:12:51;;;;;;;3.92;2.28;;;6.30;99.90;;;;;;5061424;28;20039;-90
2022/04/03 09:15:19;;;;;;;3.65;2.47;;;6.30;99.90;;;;;;5061643;28;20112;-90
2022/04/03 09:17:49;;;;;;;4.47;2.42;;;6.40;99.90;;;;;;5060180;28;20055;-90
2022/04/03 09:20:44;;;;;;;9.50;3.10;;;6.40;99.90;;;;;;5060518;28;20032;-90
2022/04/03 09:23:11;;;;;;;4.45;2.35;;;6.50;99.90;;;;;;5030249;28;20071;-89
2022/04/03 09:25:39;;;;;;;3.85;2.17;;;6.60;99.90;;;;;;5062402;28;20098;-89
2022/04/03 09:28:07;;;;;;;5.30;2.40;;;6.80;99.90;;;;;;5060198;28;20024;-90
2022/04/03 09:30:34;;;;;;;5.60;2.70;;;6.90;99.90;;;;;;5059902;28;20040;-90
2022/04/03 09:33:00;;;;;;;3.58;2.22;;;7.10;99.90;;;;;;5059552;28;20035;-88
2022/04/03 09:35:33;;;;;;;3.35;2.08;;;7.30;99.90;;;;;;5058504;28;20054;-89
2022/04/03 09:38:12;;;;;;;5.70;2.28;;;7.30;99.90;;;;;;5059120;28;20028;-89
2022/04/03 09:40:44;;;;;;;2.88;1.77;;;7.50;99.90;;;;;;5076231;28;20102;-87
2022/04/03 09:43:18;;;;;;;6.13;2.30;;;7.50;99.90;;;;;;5059351;28;20067;-90
2022/04/03 09:45:45;;;;;;;;;;;7.60;99.90;;;;;;5059744;28;20486;-90
2022/04/03 09:48:21;;;;;;;2.80;1.80;;;7.60;99.90;;;;;;5058430;28;19911;-91
2022/04/03 09:51:04;;;;;;;2.97;1.40;;;7.60;99.90;;;;;;5059405;28;20040;-90
2022/04/03 09:53:41;;;;;;;3.25;0.80;;;7.50;99.90;;;;;;5077365;28;20055;-90
2022/04/03 09:56:08;;;;;;;2.53;0.80;;;7.60;99.90;;;;;;5060189;28;20044;-90
2022/04/03 09:59:04;;;;;;;5.28;0.90;;;8.00;99.90;;;;;;5059788;28;20111;-90
2022/04/03 10:01:40;;;;;;;4.60;0.90;;;9.70;99.90;;;;;;5037101;28;20032;-91
2022/04/03 10:04:09;;;;;;;3.60;0.70;;;11.10;99.90;;;;;;5059065;28;20020;-90
2022/04/03 10:06:38;;;;;;;3.20;0.38;;;11.90;99.90;;;;;;5076528;28;20068;-92
2022/04/03 10:09:07;;;;;;;1.42;0.50;;;12.60;99.90;;;;;;5059052;28;20048;-91
2022/04/03 10:11:33;;;;;;;1.70;0.43;;;13.00;99.90;;;;;;5061299;28;20040;-91
2022/04/03 10:14:00;;;;;;;2.80;0.60;;;12.80;99.20;;;;;;5066435;28;20032;-90
2022/04/03 10:16:25;;;;;;;1.85;0.70;;;12.10;98.00;;;;;;5059415;28;20144;-91
2022/04/03 10:18:51;;;;;;;1.40;0.60;;;11.40;98.00;;;;;;5059370;28;20040;-89
2022/04/03 10:21:37;;;;;;;1.20;0.50;;;10.70;97.90;;;;;;5079846;28;20021;-90
2022/04/03 10:24:22;;;;;;;3.38;0.90;;;10.00;98.10;;;;;;5060557;28;20052;-89
2022/04/03 10:27:00;;;;;;;2.15;0.73;;;9.30;97.60;;;;;;5077674;28;20482;-92
2022/04/03 10:29:33;;;;;;;3.67;0.93;;;8.70;97.40;;;;;;5055326;28;20029;-89
2022/04/03 10:32:03;;;;;;;;;;;8.20;98.10;;;;;;5058050;28;20115;-91
2022/04/03 10:34:29;;;;;;;2.65;0.80;;;7.90;98.50;;;;;;5057950;28;20450;-88
2022/04/03 10:36:55;;;;;;;1.83;0.70;;;7.70;98.90;;;;;;5058120;28;20033;-89
2022/04/03 10:39:26;;;;;;;1.33;0.63;;;7.60;99.10;;;;;;5057926;28;20047;-87
2022/04/03 10:42:16;;;;;;;1.52;0.60;;;7.50;99.10;;;;;;5058484;28;20032;-91
2022/04/03 10:44:42;;;;;;;1.45;0.60;;;7.60;99.30;;;;;;5059271;28;20115;-92
2022/04/03 10:47:11;;;;;;;1.63;0.60;;;7.60;99.20;;;;;;5060372;28;20446;-93
2022/04/03 10:50:00;;;;;;;2.05;0.50;;;7.60;98.90;;;;;;5060068;28;20035;-91
2022/04/03 10:52:38;;;;;;;1.60;0.60;;;7.60;98.90;;;;;;5059463;28;20033;-90
2022/04/03 10:55:19;;;;;;;2.92;0.68;;;7.70;99.10;;;;;;5059292;28;20060;-89
2022/04/03 10:57:51;;;;;;;1.85;0.75;;;7.70;99.00;;;;;;5082693;28;20036;-93
2022/04/03 11:00:16;;;;;;;2.60;0.75;;;7.70;99.10;;;;;;5088409;28;20056;-93
2022/04/03 11:02:57;;;;;;;1.67;0.80;;;7.70;99.40;;;;;;5084911;28;20041;-90
2022/04/03 11:05:32;;;;;;;2.30;0.85;;;7.70;99.40;;;;;;5085428;28;20402;-91
2022/04/03 11:08:00;;;;;;;4.10;0.93;;;7.60;99.60;;;;;;5077739;28;20035;-88
2022/04/03 11:10:54;;;;;;;2.97;1.00;;;7.70;99.80;;;;;;5076501;28;20475;-89
2022/04/03 11:13:33;;;;;;;3.22;0.88;;;7.80;99.90;;;;;;5078519;28;20375;-90
2022/04/03 11:16:06;;;;;;;2.30;0.93;;;7.90;99.90;;;;;;5084240;28;20113;-91
2022/04/03 11:18:47;;;;;;;;;;;8.00;99.90;;;;;;5086894;28;20085;-89
2022/04/03 11:21:23;;;;;;;3.65;0.90;;;8.00;99.90;;;;;;5083350;28;19999;-88
2022/04/03 11:24:06;;;;;;;3.08;0.90;;;8.10;99.90;;;;;;5083036;28;20123;-90
2022/04/03 11:26:33;;;;;;;1.57;0.80;;;8.20;99.90;;;;;;5084887;28;20070;-91
2022/04/03 11:28:59;;;;;;;1.75;0.65;;;8.20;99.90;;;;;;5080751;28;20040;-92
2022/04/03 11:31:25;;;;;;;1.83;0.63;;;8.20;99.90;;;;;;5081004;28;20093;-91
2022/04/03 11:33:52;;;;;;;2.67;0.80;;;8.10;99.90;;;;;;5080075;28;20025;-91
2022/04/03 11:36:23;;;;;;;1.92;0.60;;;8.00;99.90;;;;;;5081952;28;20466;-93
2022/04/03 11:38:50;;;;;;;3.78;0.90;;;8.00;99.90;;;;;;5080515;28;20522;-92
2022/04/03 11:41:18;;;;;;;2.15;0.80;;;8.00;99.90;;;;;;5081463;28;20578;-89
2022/04/03 11:43:55;;;;;;;2.67;0.60;;;7.90;99.90;;;;;;5079157;28;20036;-92
2022/04/03 11:46:23;;;;;;;4.13;0.85;;;8.00;99.90;;;;;;5080142;28;20072;-91
2022/04/03 11:48:49;;;;;;;1.95;0.75;;;8.10;99.90;;;;;;5059461;28;20499;-90
2022/04/03 11:51:17;;;;;;;1.75;0.90;;;8.20;99.90;;;;;;5059852;28;20036;-91
2022/04/03 11:53:45;;;;;;;3.13;0.98;;;8.30;99.90;;;;;;5059982;28;20053;-91
2022/04/03 11:56:19;;;;;;;1.95;0.75;;;8.50;99.90;;;;;;5060284;28;20594;-91
2022/04/03 11:58:50;;;;;;;2.13;1.00;;;8.90;99.90;;;;;;5059774;28;20029;-88
2022/04/03 12:01:35;;;;;;;3.15;1.20;;;9.10;99.90;;;;;;5059005;28;20136;-92
2022/04/03 12:04:13;;;;;;;2.42;0.93;;;9.20;99.90;;;;;;5060875;28;20090;-90
2022/04/03 12:06:43;;;;;;;1.85;0.90;;;9.30;99.90;;;;;;5077879;28;20036;-95
2022/04/03 12:09:13;;;;;;;2.38;0.90;;;9.30;99.90;;;;;;5079063;28;20036;-92
2022/04/03 12:11:41;;;;;;;2.53;1.00;;;9.10;99.90;;;;;;5078355;28;20040;-92
2022/04/03 12:14:10;;;;;;;2.38;1.10;;;8.90;99.90;;;;;;5078705;28;20078;-91
2022/04/03 12:16:40;;;;;;;1.63;1.00;;;8.60;99.90;;;;;;5078744;28;20816;-92
2022/04/03 12:19:08;;;;;;;3.42;1.05;;;8.30;99.90;;;;;;5079171;28;20029;-93
2022/04/03 12:21:41;;;;;;;1.90;0.95;;;8.20;99.90;;;;;;5074210;28;20028;-92
2022/04/03 12:24:10;;;;;;;3.80;1.15;;;8.00;99.90;;;;;;5078735;28;20036;-91
2022/04/03 12:27:07;;;;;;;3.53;1.33;;;8.00;99.90;;;;;;5073713;28;20032;-91
2022/04/03 12:29:36;;;;;;;3.38;1.30;;;7.90;99.90;;;;;;5037602;28;20040;-91
2022/04/03 12:32:04;;;;;;;2.03;1.02;;;7.80;99.90;;;;;;5081699;28;20051;-90
2022/04/03 12:34:41;;;;;;;3.05;1.20;;;7.80;99.90;;;;;;5066911;28;20128;-92
2022/04/03 12:37:08;;;;;;;3.95;1.40;;;7.90;99.90;;;;;;5074059;28;20025;-90
2022/04/03 12:39:45;;;;;;;2.35;1.20;;;7.90;99.90;;;;;;5076074;28;20654;-92
2022/04/03 12:42:23;;;;;;;4.07;1.30;;;7.90;99.90;;;;;;5075685;28;20024;-91
2022/04/03 12:44:58;;;;;;;2.55;1.23;;;7.80;99.90;;;;;;5073856;28;20032;-90
2022/04/03 12:47:34;;;;;;;2.25;0.90;;;7.80;99.90;;;;;;5080647;28;20256;-91
2022/04/03 12:50:05;;;;;;;2.90;0.90;;;7.70;99.90;;;;;;5089073;28;20068;-91
2022/04/03 12:52:45;;;;;;;1.25;0.80;;;7.60;99.90;;;;;;5093043;28;20036;-92
2022/04/03 12:55:28;;;;;;;2.65;0.70;;;7.60;99.90;;;;;;5095021;28;20048;-93
2022/04/03 13:00:42;;;;;;;1.48;0.65;;;7.60;99.90;;;;;;5096398;28;20062;-93